createdAt,value
2023-05-25T00:00:19.098Z,99010.67
2023-05-25T00:02:18.283Z,99011.63
2023-05-25T00:03:52.171Z,99014.56
2023-05-25T00:05:27.677Z,99014.05
2023-05-25T00:06:59.478Z,99005.08
2023-05-25T00:08:23.439Z,99019.34
2023-05-25T00:09:47.584Z,99012.03
2023-05-25T00:11:23.518Z,99014.24
2023-05-25T00:13:05.701Z,99013.61
2023-05-25T00:14:39.137Z,99012.81
2023-05-25T00:16:03.137Z,99006.73
2023-05-25T00:17:43.883Z,99012.64
2023-05-25T00:19:13.098Z,99014.40
2023-05-25T00:20:59.211Z,99012.33
2023-05-25T00:22:34.324Z,99015.29
2023-05-25T00:24:05.860Z,99018.64
2023-05-25T00:25:29.945Z,99018.73
2023-05-25T00:26:54.038Z,99011.56
2023-05-25T00:28:38.105Z,99021.20
2023-05-25T00:30:11.369Z,99028.92
2023-05-25T00:31:45.045Z,99030.20
2023-05-25T00:33:06.902Z,99033.69
2023-05-25T00:34:31.634Z,99030.35
2023-05-25T00:35:56.250Z,99033.72
2023-05-25T00:37:36.861Z,99033.15
2023-05-25T00:39:01.280Z,99019.19
2023-05-25T00:40:22.908Z,99035.39
2023-05-25T00:41:45.180Z,99033.92
2023-05-25T00:43:08.087Z,99034.72
2023-05-25T00:44:32.086Z,99033.72
2023-05-25T00:46:01.575Z,99034.77
2023-05-25T00:47:23.439Z,99033.94
2023-05-25T00:48:44.941Z,99038.02
2023-05-25T00:50:20.974Z,99038.52
2023-05-25T00:51:46.586Z,99037.55
2023-05-25T00:53:08.920Z,99040.48
2023-05-25T00:54:42.411Z,99040.34
2023-05-25T00:56:04.215Z,99039.79
2023-05-25T00:57:26.221Z,99036.08
2023-05-25T00:58:48.373Z,99041.56
2023-05-25T01:00:22.595Z,99037.81
2023-05-25T01:01:56.720Z,99039.54
2023-05-25T01:03:21.707Z,99038.95
2023-05-25T01:04:45.542Z,99039.55
2023-05-25T01:06:17.297Z,99038.55
2023-05-25T01:07:50.612Z,99037.02
2023-05-25T01:09:23.756Z,99037.30
2023-05-25T01:10:52.818Z,99032.61
2023-05-25T01:12:17.492Z,99032.52
2023-05-25T01:13:39.254Z,99029.61
2023-05-25T01:15:21.537Z,99026.83
2023-05-25T01:16:45.994Z,99028.69
2023-05-25T01:18:19.822Z,99028.69
2023-05-25T01:19:49.545Z,99028.17
2023-05-25T01:21:36.097Z,99026.37
2023-05-25T01:23:10.504Z,99026.13
2023-05-25T01:24:55.824Z,99016.67
2023-05-25T01:26:41.312Z,99023.71
2023-05-25T01:28:17.213Z,99026.35
2023-05-25T01:29:50.650Z,99013.58
2023-05-25T01:31:12.445Z,99020.00
2023-05-25T01:32:54.050Z,99012.05
2023-05-25T01:34:16.255Z,99019.85
2023-05-25T01:35:56.922Z,99019.46
2023-05-25T01:37:30.926Z,99021.04
2023-05-25T01:39:16.392Z,99024.05
2023-05-25T01:40:38.208Z,99018.02
2023-05-25T01:42:31.266Z,99021.22
2023-05-25T01:44:11.913Z,99024.48
2023-05-25T01:45:45.889Z,99022.18
2023-05-25T01:47:33.165Z,99019.73
2023-05-25T01:49:04.361Z,99017.64
2023-05-25T01:50:39.783Z,99022.54
2023-05-25T01:52:29.706Z,99020.32
2023-05-25T01:53:53.985Z,99020.06
2023-05-25T01:55:39.311Z,99017.02
2023-05-25T01:57:12.962Z,99017.36
2023-05-25T01:58:35.223Z,99019.52
2023-05-25T02:00:20.055Z,99018.35
2023-05-25T02:01:53.931Z,99017.23
2023-05-25T02:03:18.076Z,99018.91
2023-05-25T02:04:40.354Z,99022.04
2023-05-25T02:06:18.530Z,99025.17
2023-05-25T02:08:14.427Z,99016.98
2023-05-25T02:09:59.481Z,99022.29
2023-05-25T02:11:35.656Z,99026.77
2023-05-25T02:13:29.269Z,99013.80
2023-05-25T02:15:14.665Z,99028.31
2023-05-25T02:16:46.192Z,99023.82
2023-05-25T02:18:19.823Z,99024.39
2023-05-25T02:20:13.107Z,99024.48
2023-05-25T02:21:57.425Z,99023.47
2023-05-25T02:23:33.283Z,99027.38
2023-05-25T02:25:18.328Z,99029.60
2023-05-25T02:27:11.558Z,99036.27
2023-05-25T02:29:06.293Z,99039.36
2023-05-25T02:30:59.309Z,99037.38
2023-05-25T02:32:22.438Z,99036.70
2023-05-25T02:34:06.448Z,99029.90
2023-05-25T02:35:47.161Z,99035.73
2023-05-25T02:37:21.506Z,99038.56
2023-05-25T02:38:57.704Z,99036.39
2023-05-25T02:40:31.077Z,99035.77
2023-05-25T02:42:17.009Z,99040.44
2023-05-25T02:44:02.725Z,99044.94
2023-05-25T02:45:37.759Z,99045.52
2023-05-25T02:47:23.797Z,99048.79
2023-05-25T02:49:04.476Z,99043.83
2023-05-25T02:50:37.158Z,99048.14
2023-05-25T02:52:12.845Z,99045.57
2023-05-25T02:53:37.506Z,99050.98
2023-05-25T02:55:06.256Z,99047.25
2023-05-25T02:56:42.981Z,99044.88
2023-05-25T02:58:12.012Z,99042.96
2023-05-25T02:59:56.487Z,99043.10
2023-05-25T03:01:42.602Z,99041.81
2023-05-25T03:03:18.253Z,99036.00
2023-05-25T03:04:54.809Z,99033.95
2023-05-25T03:06:29.578Z,99038.03
2023-05-25T03:08:07.253Z,99035.50
2023-05-25T03:09:42.104Z,99041.27
2023-05-25T03:11:15.534Z,99040.11
2023-05-25T03:12:48.097Z,99042.50
2023-05-25T03:14:21.903Z,99040.77
2023-05-25T03:16:03.091Z,99042.44
2023-05-25T03:17:48.129Z,99042.17
2023-05-25T03:19:37.919Z,99041.51
2023-05-25T03:21:11.596Z,99040.66
2023-05-25T03:22:53.103Z,99042.63
2023-05-25T03:24:27.057Z,99043.48
2023-05-25T03:26:14.536Z,99049.66
2023-05-25T03:27:37.195Z,99045.88
2023-05-25T03:29:11.363Z,99053.48
2023-05-25T03:30:40.867Z,99051.84
2023-05-25T03:32:08.095Z,99056.11
2023-05-25T03:33:42.549Z,99058.42
2023-05-25T03:35:04.561Z,99064.29
2023-05-25T03:36:38.689Z,99061.69
2023-05-25T03:38:15.185Z,99062.02
2023-05-25T03:39:49.040Z,99062.59
2023-05-25T03:41:21.177Z,99063.95
2023-05-25T03:42:42.920Z,99064.20
2023-05-25T03:44:12.533Z,99067.02
2023-05-25T03:45:48.577Z,99068.13
2023-05-25T03:47:33.896Z,99071.36
2023-05-25T03:49:19.920Z,99075.77
2023-05-25T03:51:04.450Z,99078.71
2023-05-25T03:52:38.239Z,99075.08
2023-05-25T03:54:11.911Z,99073.15
2023-05-25T03:55:57.407Z,99076.39
2023-05-25T03:57:43.122Z,99071.76
2023-05-25T03:59:28.433Z,99068.28
2023-05-25T04:01:04.308Z,99068.60
2023-05-25T04:02:39.997Z,99069.02
2023-05-25T04:04:20.921Z,99064.62
2023-05-25T04:06:14.289Z,99070.56
2023-05-25T04:07:59.601Z,99068.10
2023-05-25T04:09:34.322Z,99072.91
2023-05-25T04:11:19.468Z,99069.41
2023-05-25T04:13:01.284Z,99068.12
2023-05-25T04:14:46.354Z,99067.80
2023-05-25T04:16:31.817Z,99068.08
2023-05-25T04:18:08.418Z,99076.16
2023-05-25T04:19:30.882Z,99078.36
2023-05-25T04:21:00.161Z,99077.27
2023-05-25T04:22:45.802Z,99084.36
2023-05-25T04:24:21.849Z,99080.64
2023-05-25T04:25:54.836Z,99080.68
2023-05-25T04:27:20.367Z,99081.43
2023-05-25T04:28:58.393Z,99082.40
2023-05-25T04:30:38.407Z,99081.67
2023-05-25T04:32:09.638Z,99079.98
2023-05-25T04:34:24.831Z,99083.71
2023-05-25T04:36:18.406Z,99084.98
2023-05-25T04:37:48.444Z,99085.14
2023-05-25T04:39:21.888Z,99084.93
2023-05-25T04:40:48.494Z,99080.85
2023-05-25T04:42:24.786Z,99086.20
2023-05-25T04:44:12.939Z,99082.79
2023-05-25T04:45:51.066Z,99085.04
2023-05-25T04:47:36.700Z,99084.19
2023-05-25T04:49:22.817Z,99082.81
2023-05-25T04:51:04.726Z,99084.84
2023-05-25T04:52:40.190Z,99082.83
2023-05-25T04:54:15.948Z,99091.64
2023-05-25T04:55:59.244Z,99091.23
2023-05-25T04:57:28.630Z,99091.34
2023-05-25T04:59:14.876Z,99094.70
2023-05-25T05:00:44.500Z,99090.20
2023-05-25T05:02:37.324Z,99097.85
2023-05-25T05:04:24.496Z,99101.66
2023-05-25T05:05:56.036Z,99099.39
2023-05-25T05:07:32.987Z,99097.34
2023-05-25T05:09:19.858Z,99093.21
2023-05-25T05:10:56.432Z,99089.48
2023-05-25T05:12:42.322Z,99085.02
2023-05-25T05:14:27.725Z,99086.21
2023-05-25T05:16:01.545Z,99085.35
2023-05-25T05:17:28.323Z,99087.55
2023-05-25T05:19:13.863Z,99084.11
2023-05-25T05:20:51.076Z,99087.61
2023-05-25T05:22:25.114Z,99089.61
2023-05-25T05:24:00.949Z,99090.17
2023-05-25T05:25:36.889Z,99091.19
2023-05-25T05:27:22.508Z,99090.76
2023-05-25T05:28:52.500Z,99097.05
2023-05-25T05:30:28.263Z,99097.61
2023-05-25T05:32:04.910Z,99096.56
2023-05-25T05:33:50.588Z,99101.52
2023-05-25T05:35:37.261Z,99102.83
2023-05-25T05:37:09.227Z,99103.44
2023-05-25T05:38:42.941Z,99107.08
2023-05-25T05:40:12.916Z,99108.33
2023-05-25T05:42:00.455Z,99104.95
2023-05-25T05:43:45.625Z,99112.52
2023-05-25T05:45:20.149Z,99111.70
2023-05-25T05:46:51.851Z,99115.72
2023-05-25T05:48:13.794Z,99113.02
2023-05-25T05:49:47.534Z,99118.35
2023-05-25T05:51:21.356Z,99111.05
2023-05-25T05:52:57.157Z,99111.34
2023-05-25T05:54:33.379Z,99111.76
2023-05-25T05:56:15.660Z,99111.19
2023-05-25T05:57:49.323Z,99114.01
2023-05-25T05:59:23.157Z,99115.11
2023-05-25T06:01:10.472Z,99116.98
2023-05-25T06:02:44.528Z,99112.60
2023-05-25T06:04:21.041Z,99119.31
2023-05-25T06:05:56.708Z,99120.77
2023-05-25T06:07:39.652Z,99123.52
2023-05-25T06:09:01.474Z,99126.30
2023-05-25T06:10:35.350Z,99127.77
2023-05-25T06:12:08.833Z,99126.63
2023-05-25T06:13:54.041Z,99131.13
2023-05-25T06:15:39.744Z,99131.45
2023-05-25T06:17:11.411Z,99131.68
2023-05-25T06:18:47.789Z,99134.14
2023-05-25T06:20:09.997Z,99133.65
2023-05-25T06:21:34.006Z,99136.05
2023-05-25T06:23:20.577Z,99130.41
2023-05-25T06:24:54.571Z,99131.58
2023-05-25T06:26:35.460Z,99137.80
2023-05-25T06:28:09.646Z,99140.09
2023-05-25T06:29:36.034Z,99140.84
2023-05-25T06:31:09.672Z,99141.05
2023-05-25T06:32:50.590Z,99145.58
2023-05-25T06:34:24.308Z,99147.06
2023-05-25T06:36:00.352Z,99140.96
2023-05-25T06:37:47.124Z,99142.02
2023-05-25T06:39:12.893Z,99133.73
2023-05-25T06:40:45.162Z,99134.73
2023-05-25T06:42:06.984Z,99132.12
2023-05-25T06:43:43.093Z,99131.89
2023-05-25T06:45:11.105Z,99132.89
2023-05-25T06:46:41.440Z,99136.24
2023-05-25T06:48:13.199Z,99137.86
2023-05-25T06:49:37.895Z,99139.90
2023-05-25T06:51:10.897Z,99144.38
2023-05-25T06:52:44.296Z,99142.17
2023-05-25T06:54:08.548Z,99145.40
2023-05-25T06:55:55.798Z,99145.91
2023-05-25T06:57:22.448Z,99149.63
2023-05-25T06:58:48.863Z,99144.58
2023-05-25T07:00:12.885Z,99148.27
2023-05-25T07:01:36.881Z,99145.77
2023-05-25T07:03:06.618Z,99142.09
2023-05-25T07:04:30.462Z,99140.73
2023-05-25T07:06:03.098Z,99139.30
2023-05-25T07:07:27.372Z,99137.18
2023-05-25T07:09:03.190Z,99135.27
2023-05-25T07:10:44.763Z,99130.27
2023-05-25T07:12:08.788Z,99136.60
2023-05-25T07:13:30.900Z,99133.08
2023-05-25T07:14:57.204Z,99135.67
2023-05-25T07:16:26.389Z,99131.09
2023-05-25T07:17:47.827Z,99130.73
2023-05-25T07:19:12.118Z,99132.61
2023-05-25T07:20:34.393Z,99132.34
2023-05-25T07:22:10.041Z,99133.39
2023-05-25T07:23:33.777Z,99127.91
2023-05-25T07:25:06.936Z,99134.88
2023-05-25T07:26:28.738Z,99133.44
2023-05-25T07:28:02.228Z,99129.48
2023-05-25T07:29:38.210Z,99130.96
2023-05-25T07:31:02.479Z,99132.61
2023-05-25T07:32:47.754Z,99133.22
2023-05-25T07:34:21.085Z,99131.02
2023-05-25T07:35:54.501Z,99126.27
2023-05-25T07:37:35.446Z,99128.39
2023-05-25T07:39:01.792Z,99119.17
2023-05-25T07:40:28.190Z,99120.46
2023-05-25T07:41:50.094Z,99120.28
2023-05-25T07:43:11.714Z,99121.41
2023-05-25T07:44:36.042Z,99124.33
2023-05-25T07:46:09.893Z,99123.80
2023-05-25T07:47:43.447Z,99126.80
2023-05-25T07:49:13.138Z,99125.27
2023-05-25T07:50:46.726Z,99126.84
2023-05-25T07:52:27.965Z,99127.94
2023-05-25T07:53:54.172Z,99128.30
2023-05-25T07:55:27.924Z,99129.37
2023-05-25T07:56:52.064Z,99125.94
2023-05-25T07:58:28.938Z,99130.40
2023-05-25T08:00:09.358Z,99130.58
2023-05-25T08:01:39.484Z,99126.27
2023-05-25T08:03:13.644Z,99133.40
2023-05-25T08:04:35.665Z,99130.11
2023-05-25T08:06:20.852Z,99132.25
2023-05-25T08:07:50.651Z,99131.48
2023-05-25T08:09:26.908Z,99125.67
2023-05-25T08:11:17.385Z,99127.67
2023-05-25T08:13:02.590Z,99124.25
2023-05-25T08:14:38.366Z,99124.17
2023-05-25T08:16:11.836Z,99122.65
2023-05-25T08:17:33.615Z,99125.34
2023-05-25T08:18:59.907Z,99122.09
2023-05-25T08:20:36.579Z,99128.52
2023-05-25T08:22:10.098Z,99125.70
2023-05-25T08:23:43.049Z,99124.91
2023-05-25T08:25:18.469Z,99125.63
2023-05-25T08:26:54.395Z,99128.16
2023-05-25T08:28:32.113Z,99126.08
2023-05-25T08:30:10.681Z,99125.52
2023-05-25T08:31:56.793Z,99126.83
2023-05-25T08:33:31.827Z,99124.55
2023-05-25T08:35:08.365Z,99122.83
2023-05-25T08:36:45.759Z,99123.05
2023-05-25T08:38:36.285Z,99125.96
2023-05-25T08:40:09.563Z,99126.92
2023-05-25T08:41:45.573Z,99129.23
2023-05-25T08:43:28.154Z,99130.85
2023-05-25T08:45:26.359Z,99133.84
2023-05-25T08:47:07.668Z,99132.02
2023-05-25T08:48:52.787Z,99135.13
2023-05-25T08:50:29.863Z,99134.38
2023-05-25T08:52:10.434Z,99136.80
2023-05-25T08:53:32.506Z,99136.86
2023-05-25T08:55:08.964Z,99138.47
2023-05-25T08:56:44.955Z,99135.46
2023-05-25T08:58:18.628Z,99137.23
2023-05-25T08:59:52.073Z,99140.96
2023-05-25T09:01:14.211Z,99142.54
2023-05-25T09:02:48.182Z,99146.20
2023-05-25T09:04:33.688Z,99146.89
2023-05-25T09:05:58.034Z,99145.74
2023-05-25T09:07:26.976Z,99145.62
2023-05-25T09:08:48.934Z,99142.45
2023-05-25T09:10:11.310Z,99146.27
2023-05-25T09:11:39.784Z,99141.48
2023-05-25T09:13:19.080Z,99146.81
2023-05-25T09:14:47.729Z,99149.38
2023-05-25T09:16:11.137Z,99149.84
2023-05-25T09:17:32.601Z,99152.67
2023-05-25T09:18:54.523Z,99155.47
2023-05-25T09:20:16.689Z,99157.66
2023-05-25T09:21:38.240Z,99156.10
2023-05-25T09:23:03.228Z,99157.23
2023-05-25T09:24:24.914Z,99158.95
2023-05-25T09:25:54.176Z,99157.08
2023-05-25T09:27:30.285Z,99157.27
2023-05-25T09:29:04.060Z,99159.27
2023-05-25T09:30:37.616Z,99161.02
2023-05-25T09:31:59.292Z,99159.67
2023-05-25T09:33:28.553Z,99163.16
2023-05-25T09:34:59.644Z,99163.70
2023-05-25T09:36:45.027Z,99158.73
2023-05-25T09:38:30.666Z,99157.89
2023-05-25T09:39:52.877Z,99159.05
2023-05-25T09:41:14.629Z,99159.77
2023-05-25T09:42:59.405Z,99164.68
2023-05-25T09:44:37.537Z,99165.95
2023-05-25T09:46:18.215Z,99164.83
2023-05-25T09:48:04.305Z,99168.80
2023-05-25T09:49:49.554Z,99163.41
2023-05-25T09:51:31.334Z,99164.94
2023-05-25T09:53:11.814Z,99162.35
2023-05-25T09:54:56.766Z,99156.65
2023-05-25T09:56:33.514Z,99150.20
2023-05-25T09:58:14.393Z,99157.14
2023-05-25T09:59:48.006Z,99155.48
2023-05-25T10:01:23.443Z,99155.76
2023-05-25T10:02:59.272Z,99153.58
2023-05-25T10:04:44.635Z,99159.65
2023-05-25T10:06:25.484Z,99162.76
2023-05-25T10:07:47.147Z,99158.30
2023-05-25T10:09:22.753Z,99158.36
2023-05-25T10:10:56.100Z,99153.17
2023-05-25T10:12:41.373Z,99157.04
2023-05-25T10:14:17.641Z,99156.36
2023-05-25T10:15:51.135Z,99158.88
2023-05-25T10:17:26.748Z,99159.15
2023-05-25T10:19:02.179Z,99159.11
2023-05-25T10:20:37.996Z,99154.02
2023-05-25T10:22:12.127Z,99163.20
2023-05-25T10:23:47.788Z,99163.16
2023-05-25T10:25:28.532Z,99166.67
2023-05-25T10:26:52.613Z,99168.55
2023-05-25T10:28:26.781Z,99171.63
2023-05-25T10:30:01.370Z,99166.71
2023-05-25T10:31:35.108Z,99167.84
2023-05-25T10:33:08.884Z,99166.01
2023-05-25T10:34:45.018Z,99173.92
2023-05-25T10:36:31.303Z,99175.91
2023-05-25T10:38:00.582Z,99173.31
2023-05-25T10:39:22.669Z,99174.27
2023-05-25T10:40:56.164Z,99172.98
2023-05-25T10:42:29.953Z,99173.53
2023-05-25T10:44:03.049Z,99173.15
2023-05-25T10:45:44.432Z,99174.41
2023-05-25T10:47:19.180Z,99173.86
2023-05-25T10:48:53.001Z,99176.49
2023-05-25T10:50:26.194Z,99174.89
2023-05-25T10:51:59.906Z,99178.96
2023-05-25T10:53:33.336Z,99176.90
2023-05-25T10:55:06.652Z,99171.23
2023-05-25T10:56:33.135Z,99172.23
2023-05-25T10:58:06.737Z,99169.95
2023-05-25T10:59:38.855Z,99171.64
2023-05-25T11:01:12.617Z,99174.83
2023-05-25T11:02:36.462Z,99174.20
2023-05-25T11:04:00.517Z,99167.05
2023-05-25T11:05:34.187Z,99161.70
2023-05-25T11:07:20.387Z,99169.52
2023-05-25T11:08:56.272Z,99170.05
2023-05-25T11:10:29.898Z,99168.45
2023-05-25T11:12:15.513Z,99169.20
2023-05-25T11:13:45.103Z,99162.49
2023-05-25T11:15:27.276Z,99162.91
2023-05-25T11:17:12.177Z,99171.48
2023-05-25T11:18:46.283Z,99170.13
2023-05-25T11:20:19.968Z,99168.79
2023-05-25T11:22:08.501Z,99168.38
2023-05-25T11:23:42.175Z,99163.52
2023-05-25T11:25:16.174Z,99162.46
2023-05-25T11:27:01.029Z,99162.61
2023-05-25T11:28:45.840Z,99164.02
2023-05-25T11:30:19.510Z,99168.41
2023-05-25T11:31:54.760Z,99167.33
2023-05-25T11:33:40.229Z,99161.71
2023-05-25T11:35:23.380Z,99159.91
2023-05-25T11:36:57.732Z,99159.89
2023-05-25T11:38:47.348Z,99157.70
2023-05-25T11:40:29.148Z,99152.92
2023-05-25T11:42:02.189Z,99157.65
2023-05-25T11:43:36.781Z,99153.08
2023-05-25T11:45:06.123Z,99148.02
2023-05-25T11:46:31.051Z,99150.73
2023-05-25T11:47:53.028Z,99152.09
2023-05-25T11:49:30.134Z,99151.56
2023-05-25T11:50:53.729Z,99153.30
2023-05-25T11:52:27.672Z,99159.44
2023-05-25T11:54:01.579Z,99157.02
2023-05-25T11:55:46.742Z,99155.79
2023-05-25T11:57:22.506Z,99153.40
2023-05-25T11:59:03.175Z,99161.16
2023-05-25T12:00:39.892Z,99154.69
2023-05-25T12:02:22.534Z,99156.38
2023-05-25T12:03:53.959Z,99160.83
2023-05-25T12:05:23.392Z,99159.27
2023-05-25T12:06:47.740Z,99154.35
2023-05-25T12:08:17.007Z,99161.45
2023-05-25T12:09:55.510Z,99162.52
2023-05-25T12:11:29.448Z,99159.89
2023-05-25T12:13:14.296Z,99159.13
2023-05-25T12:14:59.025Z,99162.55
2023-05-25T12:16:42.375Z,99161.98
2023-05-25T12:18:06.262Z,99156.45
2023-05-25T12:19:35.768Z,99158.09
2023-05-25T12:21:00.737Z,99157.19
2023-05-25T12:22:34.604Z,99157.80
2023-05-25T12:24:01.378Z,99152.27
2023-05-25T12:25:50.268Z,99148.19
2023-05-25T12:27:15.097Z,99145.64
2023-05-25T12:28:56.350Z,99148.23
2023-05-25T12:30:28.136Z,99148.70
2023-05-25T12:31:50.164Z,99150.09
2023-05-25T12:33:23.380Z,99149.13
2023-05-25T12:34:45.107Z,99156.39
2023-05-25T12:36:25.351Z,99152.48
2023-05-25T12:37:49.537Z,99148.36
2023-05-25T12:39:26.284Z,99150.52
2023-05-25T12:41:02.144Z,99146.05
2023-05-25T12:42:43.142Z,99145.44
2023-05-25T12:44:07.348Z,99141.52
2023-05-25T12:45:41.124Z,99147.41
2023-05-25T12:47:07.115Z,99144.52
2023-05-25T12:48:56.197Z,99146.69
2023-05-25T12:50:32.581Z,99146.05
2023-05-25T12:52:19.046Z,99142.99
2023-05-25T12:53:52.410Z,99142.39
2023-05-25T12:55:26.158Z,99142.32
2023-05-25T12:57:07.058Z,99141.64
2023-05-25T12:58:40.948Z,99136.65
2023-05-25T13:00:32.293Z,99133.25
2023-05-25T13:02:14.736Z,99134.04
2023-05-25T13:04:09.292Z,99131.52
2023-05-25T13:05:44.499Z,99129.73
2023-05-25T13:07:30.107Z,99130.90
2023-05-25T13:09:11.155Z,99127.55
2023-05-25T13:10:42.725Z,99123.55
2023-05-25T13:12:24.675Z,99115.96
2023-05-25T13:13:50.753Z,99119.96
2023-05-25T13:15:24.270Z,99119.61
2023-05-25T13:17:09.118Z,99119.09
2023-05-25T13:18:50.332Z,99122.30
2023-05-25T13:20:35.415Z,99116.86
2023-05-25T13:22:08.579Z,99109.98
2023-05-25T13:23:42.064Z,99117.83
2023-05-25T13:25:06.190Z,99118.41
2023-05-25T13:26:28.656Z,99116.73
2023-05-25T13:28:00.145Z,99114.49
2023-05-25T13:29:29.283Z,99107.19
2023-05-25T13:31:04.817Z,99108.48
2023-05-25T13:32:39.173Z,99109.22
2023-05-25T13:34:12.994Z,99105.29
2023-05-25T13:35:57.457Z,99101.73
2023-05-25T13:37:33.916Z,99105.80
2023-05-25T13:39:14.668Z,99101.45
2023-05-25T13:41:00.194Z,99101.34
2023-05-25T13:42:34.554Z,99105.66
2023-05-25T13:44:17.421Z,99108.38
2023-05-25T13:46:02.865Z,99111.32
2023-05-25T13:47:36.938Z,99114.36
2023-05-25T13:49:26.421Z,99109.31
2023-05-25T13:50:55.668Z,99106.88
2023-05-25T13:52:29.710Z,99107.88
2023-05-25T13:54:06.158Z,99105.21
2023-05-25T13:55:28.146Z,99100.29
2023-05-25T13:57:03.711Z,99097.39
2023-05-25T13:58:37.605Z,99101.58
2023-05-25T14:00:07.110Z,99100.02
2023-05-25T14:01:41.101Z,99100.55
2023-05-25T14:03:02.917Z,99093.30
2023-05-25T14:04:24.796Z,99097.38
2023-05-25T14:05:58.242Z,99097.17
2023-05-25T14:07:20.130Z,99100.65
2023-05-25T14:08:41.386Z,99103.20
2023-05-25T14:10:02.552Z,99106.54
2023-05-25T14:11:39.599Z,99105.38
2023-05-25T14:13:14.210Z,99105.98
2023-05-25T14:14:47.695Z,99101.50
2023-05-25T14:16:09.554Z,99098.17
2023-05-25T14:17:41.421Z,99097.21
2023-05-25T14:19:17.128Z,99095.83
2023-05-25T14:20:42.897Z,99097.61
2023-05-25T14:22:28.339Z,99094.48
2023-05-25T14:24:03.768Z,99097.73
2023-05-25T14:25:39.694Z,99097.86
2023-05-25T14:27:17.429Z,99097.39
2023-05-25T14:28:41.562Z,99098.77
2023-05-25T14:30:17.202Z,99095.17
2023-05-25T14:31:52.949Z,99094.66
2023-05-25T14:33:17.242Z,99092.60
2023-05-25T14:34:39.477Z,99091.77
2023-05-25T14:36:23.733Z,99093.80
2023-05-25T14:37:57.191Z,99092.03
2023-05-25T14:39:32.866Z,99088.73
2023-05-25T14:41:27.305Z,99086.73
2023-05-25T14:42:56.720Z,99086.77
2023-05-25T14:44:30.373Z,99086.84
2023-05-25T14:46:15.659Z,99087.48
2023-05-25T14:47:49.725Z,99087.47
2023-05-25T14:49:17.297Z,99089.02
2023-05-25T14:50:53.547Z,99082.95
2023-05-25T14:52:36.412Z,99081.73
2023-05-25T14:54:00.366Z,99074.25
2023-05-25T14:55:45.582Z,99074.52
2023-05-25T14:57:18.949Z,99074.77
2023-05-25T14:58:52.226Z,99072.15
2023-05-25T15:00:33.392Z,99074.84
2023-05-25T15:01:55.472Z,99073.48
2023-05-25T15:03:20.300Z,99071.23
2023-05-25T15:05:00.732Z,99075.15
2023-05-25T15:06:34.638Z,99074.23
2023-05-25T15:08:07.353Z,99073.41
2023-05-25T15:09:36.893Z,99072.77
2023-05-25T15:11:12.453Z,99078.90
2023-05-25T15:12:48.751Z,99079.20
2023-05-25T15:14:22.326Z,99077.27
2023-05-25T15:15:44.818Z,99074.88
2023-05-25T15:17:31.365Z,99072.75
2023-05-25T15:19:13.874Z,99077.21
2023-05-25T15:21:05.712Z,99074.96
2023-05-25T15:22:51.210Z,99070.21
2023-05-25T15:24:27.248Z,99072.66
2023-05-25T15:25:57.379Z,99067.98
2023-05-25T15:27:28.975Z,99072.09
2023-05-25T15:28:55.267Z,99073.92
2023-05-25T15:30:27.736Z,99070.27
2023-05-25T15:32:13.301Z,99067.86
2023-05-25T15:33:54.292Z,99071.65
2023-05-25T15:35:39.203Z,99067.92
2023-05-25T15:37:13.143Z,99067.35
2023-05-25T15:38:49.453Z,99069.45
2023-05-25T15:40:34.817Z,99071.31
2023-05-25T15:42:21.108Z,99072.05
2023-05-25T15:43:48.728Z,99071.35
2023-05-25T15:45:24.956Z,99064.73
2023-05-25T15:46:49.096Z,99063.06
2023-05-25T15:48:24.219Z,99062.50
2023-05-25T15:50:02.286Z,99063.87
2023-05-25T15:51:35.974Z,99062.14
2023-05-25T15:53:21.689Z,99060.66
2023-05-25T15:55:07.048Z,99059.59
2023-05-25T15:56:40.634Z,99058.88
2023-05-25T15:58:20.888Z,99058.74
2023-05-25T16:00:02.798Z,99064.57
2023-05-25T16:01:27.459Z,99065.07
2023-05-25T16:03:02.004Z,99067.95
2023-05-25T16:04:26.234Z,99069.09
2023-05-25T16:06:12.063Z,99065.38
2023-05-25T16:07:48.660Z,99071.30
2023-05-25T16:09:22.145Z,99068.83
2023-05-25T16:11:03.023Z,99067.75
2023-05-25T16:12:45.524Z,99064.25
2023-05-25T16:14:19.065Z,99059.07
2023-05-25T16:15:50.051Z,99060.92
2023-05-25T16:17:35.766Z,99055.22
2023-05-25T16:19:14.115Z,99059.88
2023-05-25T16:21:08.462Z,99060.46
2023-05-25T16:22:41.966Z,99061.83
2023-05-25T16:24:27.262Z,99065.33
2023-05-25T16:26:15.589Z,99067.92
2023-05-25T16:27:49.176Z,99067.96
2023-05-25T16:29:22.654Z,99068.15
2023-05-25T16:30:56.331Z,99066.01
2023-05-25T16:32:32.691Z,99066.54
2023-05-25T16:34:08.600Z,99065.07
2023-05-25T16:36:03.333Z,99067.71
2023-05-25T16:37:58.326Z,99063.52
2023-05-25T16:39:34.654Z,99062.00
2023-05-25T16:41:14.563Z,99061.29
2023-05-25T16:43:02.481Z,99059.67
2023-05-25T16:44:36.353Z,99060.58
2023-05-25T16:46:17.248Z,99063.39
2023-05-25T16:47:49.410Z,99057.64
2023-05-25T16:49:34.862Z,99058.45
2023-05-25T16:51:20.357Z,99060.05
2023-05-25T16:52:52.603Z,99056.57
2023-05-25T16:54:26.295Z,99053.46
2023-05-25T16:56:00.149Z,99054.34
2023-05-25T16:57:33.795Z,99055.40
2023-05-25T16:59:00.021Z,99056.96
2023-05-25T17:00:45.248Z,99053.17
2023-05-25T17:02:26.200Z,99050.56
2023-05-25T17:04:08.772Z,99053.95
2023-05-25T17:05:42.228Z,99052.92
2023-05-25T17:07:16.364Z,99056.38
2023-05-25T17:08:52.305Z,99054.17
2023-05-25T17:10:37.734Z,99054.55
2023-05-25T17:12:12.746Z,99056.64
2023-05-25T17:13:58.750Z,99056.02
2023-05-25T17:15:44.725Z,99053.56
2023-05-25T17:17:34.637Z,99059.41
2023-05-25T17:19:19.735Z,99060.90
2023-05-25T17:20:53.698Z,99061.95
2023-05-25T17:22:16.129Z,99063.05
2023-05-25T17:23:50.176Z,99064.88
2023-05-25T17:25:21.896Z,99062.39
2023-05-25T17:27:01.216Z,99064.81
2023-05-25T17:28:48.288Z,99062.70
2023-05-25T17:30:10.559Z,99064.00
2023-05-25T17:31:46.259Z,99063.66
2023-05-25T17:33:27.788Z,99063.32
2023-05-25T17:34:52.942Z,99060.81
2023-05-25T17:36:27.029Z,99060.89
2023-05-25T17:37:51.341Z,99060.81
2023-05-25T17:39:24.875Z,99058.84
2023-05-25T17:41:06.027Z,99057.86
2023-05-25T17:42:42.194Z,99055.17
2023-05-25T17:44:27.605Z,99059.59
2023-05-25T17:46:01.458Z,99060.23
2023-05-25T17:47:35.891Z,99060.86
2023-05-25T17:49:09.797Z,99065.77
2023-05-25T17:50:43.490Z,99066.66
2023-05-25T17:52:29.492Z,99063.60
2023-05-25T17:54:06.606Z,99067.13
2023-05-25T17:55:31.307Z,99068.23
2023-05-25T17:57:04.872Z,99067.95
2023-05-25T17:58:50.430Z,99058.37
2023-05-25T18:00:26.657Z,99067.08
2023-05-25T18:01:58.110Z,99069.09
2023-05-25T18:03:41.164Z,99069.30
2023-05-25T18:05:05.784Z,99068.64
2023-05-25T18:06:52.180Z,99069.55
2023-05-25T18:08:25.414Z,99069.45
2023-05-25T18:09:55.034Z,99071.19
2023-05-25T18:11:41.913Z,99069.90
2023-05-25T18:13:27.636Z,99070.47
2023-05-25T18:15:08.568Z,99068.98
2023-05-25T18:16:42.475Z,99070.52
2023-05-25T18:18:23.325Z,99072.48
2023-05-25T18:19:56.740Z,99072.67
2023-05-25T18:21:33.392Z,99075.38
2023-05-25T18:23:04.497Z,99075.41
2023-05-25T18:24:50.450Z,99079.46
2023-05-25T18:26:36.640Z,99079.01
2023-05-25T18:28:23.622Z,99078.02
2023-05-25T18:30:17.998Z,99076.73
2023-05-25T18:31:57.243Z,99086.51
2023-05-25T18:33:42.687Z,99083.45
2023-05-25T18:35:20.345Z,99087.81
2023-05-25T18:36:44.681Z,99089.25
2023-05-25T18:38:18.464Z,99092.44
2023-05-25T18:40:11.666Z,99089.25